sensor_id;sensor_type;location;lat;lon;timestamp;temperature;humidity
55642;DHT22;41509;53.108;6.100;2022-12-07T00:01:24;4.20;99.90
55642;DHT22;41509;53.108;6.100;2022-12-07T00:03:53;4.30;99.90
55642;DHT22;41509;53.108;6.100;2022-12-07T00:06:19;4.30;99.90
55642;DHT22;41509;53.108;6.100;2022-12-07T00:08:45;4.30;99.90
55642;DHT22;41509;53.108;6.100;2022-12-07T00:11:14;4.30;99.90
55642;DHT22;41509;53.108;6.100;2022-12-07T00:13:40;4.30;99.90
55642;DHT22;41509;53.108;6.100;2022-12-07T00:16:10;4.40;99.90
55642;DHT22;41509;53.108;6.100;2022-12-07T00:18:37;4.30;99.90
55642;DHT22;41509;53.108;6.100;2022-12-07T00:21:09;4.40;99.90
55642;DHT22;41509;53.108;6.100;2022-12-07T00:23:35;4.40;99.90
55642;DHT22;41509;53.108;6.100;2022-12-07T00:26:10;4.50;99.90
55642;DHT22;41509;53.108;6.100;2022-12-07T00:28:37;4.50;99.90
55642;DHT22;41509;53.108;6.100;2022-12-07T00:31:11;4.50;99.90
55642;DHT22;41509;53.108;6.100;2022-12-07T00:33:37;4.50;99.90
55642;DHT22;41509;53.108;6.100;2022-12-07T00:36:06;4.50;99.90
55642;DHT22;41509;53.108;6.100;2022-12-07T00:38:34;4.40;99.90
55642;DHT22;41509;53.108;6.100;2022-12-07T00:41:02;4.50;99.90
55642;DHT22;41509;53.108;6.100;2022-12-07T00:43:29;4.40;99.90
55642;DHT22;41509;53.108;6.100;2022-12-07T00:45:55;4.40;99.90
55642;DHT22;41509;53.108;6.100;2022-12-07T00:48:22;4.40;99.90
55642;DHT22;41509;53.108;6.100;2022-12-07T00:50:48;4.50;99.90
55642;DHT22;41509;53.108;6.100;2022-12-07T00:53:14;4.40;99.90
55642;DHT22;41509;53.108;6.100;2022-12-07T00:55:40;4.50;99.90
55642;DHT22;41509;53.108;6.100;2022-12-07T00:58:06;4.40;99.90
55642;DHT22;41509;53.108;6.100;2022-12-07T01:00:32;4.50;99.90
55642;DHT22;41509;53.108;6.100;2022-12-07T01:03:00;4.40;99.90
55642;DHT22;41509;53.108;6.100;2022-12-07T01:05:25;4.50;99.90
55642;DHT22;41509;53.108;6.100;2022-12-07T01:07:51;4.50;99.90
55642;DHT22;41509;53.108;6.100;2022-12-07T01:10:17;4.50;99.90
55642;DHT22;41509;53.108;6.100;2022-12-07T01:12:42;4.50;99.90
55642;DHT22;41509;53.108;6.100;2022-12-07T01:15:08;4.50;99.90
55642;DHT22;41509;53.108;6.100;2022-12-07T01:17:34;4.50;99.90
55642;DHT22;41509;53.108;6.100;2022-12-07T01:20:00;4.50;99.90
55642;DHT22;41509;53.108;6.100;2022-12-07T01:22:26;4.50;99.90
55642;DHT22;41509;53.108;6.100;2022-12-07T01:24:52;4.40;99.90
55642;DHT22;41509;53.108;6.100;2022-12-07T01:27:19;4.40;99.90
55642;DHT22;41509;53.108;6.100;2022-12-07T01:29:44;4.40;99.90
55642;DHT22;41509;53.108;6.100;2022-12-07T01:32:10;4.40;99.90
55642;DHT22;41509;53.108;6.100;2022-12-07T01:34:36;4.40;99.90
55642;DHT22;41509;53.108;6.100;2022-12-07T01:37:02;4.30;99.90
55642;DHT22;41509;53.108;6.100;2022-12-07T01:39:27;4.40;99.90
55642;DHT22;41509;53.108;6.100;2022-12-07T01:41:53;4.30;99.90
55642;DHT22;41509;53.108;6.100;2022-12-07T01:44:27;4.30;99.90
55642;DHT22;41509;53.108;6.100;2022-12-07T01:46:59;4.40;99.90
55642;DHT22;41509;53.108;6.100;2022-12-07T01:52:17;4.40;99.90
55642;DHT22;41509;53.108;6.100;2022-12-07T01:54:45;4.40;99.90
55642;DHT22;41509;53.108;6.100;2022-12-07T01:57:11;4.40;99.90
55642;DHT22;41509;53.108;6.100;2022-12-07T01:59:39;4.40;99.90
55642;DHT22;41509;53.108;6.100;2022-12-07T02:02:10;4.50;99.90
55642;DHT22;41509;53.108;6.100;2022-12-07T02:04:37;4.50;99.90
55642;DHT22;41509;53.108;6.100;2022-12-07T02:07:04;4.50;99.90
55642;DHT22;41509;53.108;6.100;2022-12-07T02:09:30;4.50;99.90
55642;DHT22;41509;53.108;6.100;2022-12-07T02:11:56;4.50;99.90
55642;DHT22;41509;53.108;6.100;2022-12-07T02:14:22;4.50;99.90
55642;DHT22;41509;53.108;6.100;2022-12-07T02:25:19;4.50;99.90
55642;DHT22;41509;53.108;6.100;2022-12-07T02:28:19;4.50;99.90
55642;DHT22;41509;53.108;6.100;2022-12-07T02:30:51;4.50;99.90
55642;DHT22;41509;53.108;6.100;2022-12-07T02:33:28;4.50;99.90
55642;DHT22;41509;53.108;6.100;2022-12-07T02:36:26;4.60;99.90
55642;DHT22;41509;53.108;6.100;2022-12-07T02:39:13;4.50;99.90
55642;DHT22;41509;53.108;6.100;2022-12-07T02:41:42;4.50;99.90
55642;DHT22;41509;53.108;6.100;2022-12-07T02:44:11;4.50;99.90
55642;DHT22;41509;53.108;6.100;2022-12-07T02:46:46;4.40;99.90
55642;DHT22;41509;53.108;6.100;2022-12-07T02:49:33;4.40;99.90
55642;DHT22;41509;53.108;6.100;2022-12-07T02:52:00;4.40;99.90
55642;DHT22;41509;53.108;6.100;2022-12-07T02:54:25;4.40;99.90
55642;DHT22;41509;53.108;6.100;2022-12-07T02:57:10;4.40;99.90
55642;DHT22;41509;53.108;6.100;2022-12-07T03:00:04;4.30;99.90
55642;DHT22;41509;53.108;6.100;2022-12-07T03:02:43;4.30;99.90
55642;DHT22;41509;53.108;6.100;2022-12-07T03:13:05;4.20;99.90
55642;DHT22;41509;53.108;6.100;2022-12-07T03:15:56;4.20;99.90
55642;DHT22;41509;53.108;6.100;2022-12-07T03:18:25;4.10;99.90
55642;DHT22;41509;53.108;6.100;2022-12-07T03:20:55;4.10;99.90
55642;DHT22;41509;53.108;6.100;2022-12-07T03:23:25;4.10;99.90
55642;DHT22;41509;53.108;6.100;2022-12-07T03:25:55;4.00;99.90
55642;DHT22;41509;53.108;6.100;2022-12-07T03:28:24;4.00;99.90
55642;DHT22;41509;53.108;6.100;2022-12-07T03:30:56;3.90;99.90
55642;DHT22;41509;53.108;6.100;2022-12-07T03:33:31;3.90;99.90
55642;DHT22;41509;53.108;6.100;2022-12-07T03:36:06;3.90;99.90
55642;DHT22;41509;53.108;6.100;2022-12-07T03:38:40;3.90;99.90
55642;DHT22;41509;53.108;6.100;2022-12-07T03:41:25;3.90;99.90
55642;DHT22;41509;53.108;6.100;2022-12-07T03:43:53;3.90;99.90
55642;DHT22;41509;53.108;6.100;2022-12-07T03:54:44;3.90;99.90
55642;DHT22;41509;53.108;6.100;2022-12-07T03:57:12;3.90;99.90
55642;DHT22;41509;53.108;6.100;2022-12-07T03:59:39;4.00;99.90
55642;DHT22;41509;53.108;6.100;2022-12-07T04:02:07;4.00;99.90
55642;DHT22;41509;53.108;6.100;2022-12-07T04:04:33;4.00;99.90
55642;DHT22;41509;53.108;6.100;2022-12-07T04:06:59;4.10;99.90
55642;DHT22;41509;53.108;6.100;2022-12-07T04:09:25;4.20;99.90
55642;DHT22;41509;53.108;6.100;2022-12-07T04:11:51;4.20;99.90
55642;DHT22;41509;53.108;6.100;2022-12-07T04:14:16;4.30;99.90
55642;DHT22;41509;53.108;6.100;2022-12-07T04:19:11;4.30;99.90
55642;DHT22;41509;53.108;6.100;2022-12-07T04:21:37;4.30;99.90
55642;DHT22;41509;53.108;6.100;2022-12-07T04:24:03;4.30;99.90
55642;DHT22;41509;53.108;6.100;2022-12-07T04:26:29;4.30;99.90
55642;DHT22;41509;53.108;6.100;2022-12-07T04:28:55;4.30;99.90
55642;DHT22;41509;53.108;6.100;2022-12-07T04:31:21;4.30;99.90
55642;DHT22;41509;53.108;6.100;2022-12-07T04:33:46;4.30;99.90
55642;DHT22;41509;53.108;6.100;2022-12-07T04:36:12;4.30;99.90
55642;DHT22;41509;53.108;6.100;2022-12-07T04:38:38;4.20;99.90
55642;DHT22;41509;53.108;6.100;2022-12-07T04:41:07;4.20;99.90
55642;DHT22;41509;53.108;6.100;2022-12-07T04:43:33;4.20;99.90
55642;DHT22;41509;53.108;6.100;2022-12-07T04:45:59;4.20;99.90
55642;DHT22;41509;53.108;6.100;2022-12-07T04:48:24;4.20;99.90
55642;DHT22;41509;53.108;6.100;2022-12-07T04:50:50;4.10;99.90
55642;DHT22;41509;53.108;6.100;2022-12-07T04:53:16;4.20;99.90
55642;DHT22;41509;53.108;6.100;2022-12-07T04:55:41;4.10;99.90
55642;DHT22;41509;53.108;6.100;2022-12-07T04:58:07;4.10;99.90
55642;DHT22;41509;53.108;6.100;2022-12-07T05:00:33;4.10;99.90
55642;DHT22;41509;53.108;6.100;2022-12-07T05:02:58;4.10;99.90
55642;DHT22;41509;53.108;6.100;2022-12-07T05:05:24;4.10;99.90
55642;DHT22;41509;53.108;6.100;2022-12-07T05:07:50;4.00;99.90
55642;DHT22;41509;53.108;6.100;2022-12-07T05:10:16;4.00;99.90
55642;DHT22;41509;53.108;6.100;2022-12-07T05:12:42;4.00;99.90
55642;DHT22;41509;53.108;6.100;2022-12-07T05:15:07;3.90;99.90
55642;DHT22;41509;53.108;6.100;2022-12-07T05:17:33;3.90;99.90
55642;DHT22;41509;53.108;6.100;2022-12-07T05:19:59;3.90;99.90
55642;DHT22;41509;53.108;6.100;2022-12-07T05:22:24;3.90;99.90
55642;DHT22;41509;53.108;6.100;2022-12-07T05:24:54;3.90;99.90
55642;DHT22;41509;53.108;6.100;2022-12-07T05:27:20;3.90;99.90
55642;DHT22;41509;53.108;6.100;2022-12-07T05:29:45;3.90;99.90
55642;DHT22;41509;53.108;6.100;2022-12-07T05:32:11;3.90;99.90
55642;DHT22;41509;53.108;6.100;2022-12-07T05:34:37;3.90;99.90
55642;DHT22;41509;53.108;6.100;2022-12-07T05:37:03;3.90;99.90
55642;DHT22;41509;53.108;6.100;2022-12-07T05:39:29;3.90;99.90
55642;DHT22;41509;53.108;6.100;2022-12-07T05:41:54;3.90;99.90
55642;DHT22;41509;53.108;6.100;2022-12-07T05:44:46;3.90;99.90
55642;DHT22;41509;53.108;6.100;2022-12-07T05:47:13;4.00;99.90
55642;DHT22;41509;53.108;6.100;2022-12-07T05:49:39;4.00;99.90
55642;DHT22;41509;53.108;6.100;2022-12-07T05:52:05;4.00;99.90
55642;DHT22;41509;53.108;6.100;2022-12-07T05:54:31;4.10;99.90
55642;DHT22;41509;53.108;6.100;2022-12-07T05:56:56;4.10;99.90
55642;DHT22;41509;53.108;6.100;2022-12-07T05:59:22;4.10;99.90
55642;DHT22;41509;53.108;6.100;2022-12-07T06:01:59;4.10;99.90
55642;DHT22;41509;53.108;6.100;2022-12-07T06:04:27;4.10;99.90
55642;DHT22;41509;53.108;6.100;2022-12-07T06:06:53;4.10;99.90
55642;DHT22;41509;53.108;6.100;2022-12-07T06:09:20;4.00;99.90
55642;DHT22;41509;53.108;6.100;2022-12-07T06:11:46;4.00;99.90
55642;DHT22;41509;53.108;6.100;2022-12-07T06:14:30;4.00;99.90
55642;DHT22;41509;53.108;6.100;2022-12-07T06:16:56;4.10;99.90
55642;DHT22;41509;53.108;6.100;2022-12-07T06:19:21;4.10;99.90
55642;DHT22;41509;53.108;6.100;2022-12-07T06:21:47;4.10;99.90
55642;DHT22;41509;53.108;6.100;2022-12-07T06:24:14;4.10;99.90
55642;DHT22;41509;53.108;6.100;2022-12-07T06:26:41;4.10;99.90
55642;DHT22;41509;53.108;6.100;2022-12-07T06:29:07;4.10;99.90
55642;DHT22;41509;53.108;6.100;2022-12-07T06:31:32;4.10;99.90
55642;DHT22;41509;53.108;6.100;2022-12-07T06:34:09;4.20;99.90
55642;DHT22;41509;53.108;6.100;2022-12-07T06:36:35;4.20;99.90
55642;DHT22;41509;53.108;6.100;2022-12-07T06:39:02;4.20;99.90
55642;DHT22;41509;53.108;6.100;2022-12-07T06:41:27;4.10;99.90
55642;DHT22;41509;53.108;6.100;2022-12-07T06:43:53;4.10;99.90
55642;DHT22;41509;53.108;6.100;2022-12-07T06:46:19;4.00;99.90
55642;DHT22;41509;53.108;6.100;2022-12-07T06:48:45;4.00;99.90
55642;DHT22;41509;53.108;6.100;2022-12-07T06:51:11;4.00;99.90
55642;DHT22;41509;53.108;6.100;2022-12-07T06:53:36;3.90;99.90
55642;DHT22;41509;53.108;6.100;2022-12-07T06:56:03;4.00;99.90
55642;DHT22;41509;53.108;6.100;2022-12-07T06:58:29;4.00;99.90
55642;DHT22;41509;53.108;6.100;2022-12-07T07:00:55;4.00;99.90
55642;DHT22;41509;53.108;6.100;2022-12-07T07:03:20;4.00;99.90
55642;DHT22;41509;53.108;6.100;2022-12-07T07:05:46;4.00;99.90
55642;DHT22;41509;53.108;6.100;2022-12-07T07:08:12;3.90;99.90
55642;DHT22;41509;53.108;6.100;2022-12-07T07:10:38;4.00;99.90
55642;DHT22;41509;53.108;6.100;2022-12-07T07:13:04;4.00;99.90
55642;DHT22;41509;53.108;6.100;2022-12-07T07:15:30;4.00;99.90
55642;DHT22;41509;53.108;6.100;2022-12-07T07:17:57;4.00;99.90
55642;DHT22;41509;53.108;6.100;2022-12-07T07:20:22;4.00;99.90
55642;DHT22;41509;53.108;6.100;2022-12-07T07:22:48;4.00;99.90
55642;DHT22;41509;53.108;6.100;2022-12-07T07:25:21;4.00;99.90
55642;DHT22;41509;53.108;6.100;2022-12-07T07:27:47;4.00;99.90
55642;DHT22;41509;53.108;6.100;2022-12-07T07:30:13;4.00;99.90
55642;DHT22;41509;53.108;6.100;2022-12-07T07:32:38;4.00;99.90
55642;DHT22;41509;53.108;6.100;2022-12-07T07:35:04;3.90;99.90
55642;DHT22;41509;53.108;6.100;2022-12-07T07:37:30;3.90;99.90
55642;DHT22;41509;53.108;6.100;2022-12-07T07:39:56;3.90;99.90
55642;DHT22;41509;53.108;6.100;2022-12-07T07:42:22;3.90;99.90
55642;DHT22;41509;53.108;6.100;2022-12-07T07:44:47;3.80;99.90
55642;DHT22;41509;53.108;6.100;2022-12-07T07:47:13;3.80;99.90
55642;DHT22;41509;53.108;6.100;2022-12-07T07:49:38;3.80;99.90
55642;DHT22;41509;53.108;6.100;2022-12-07T07:52:05;3.70;99.90
55642;DHT22;41509;53.108;6.100;2022-12-07T07:54:31;3.80;99.90
55642;DHT22;41509;53.108;6.100;2022-12-07T07:56:57;3.80;99.90
55642;DHT22;41509;53.108;6.100;2022-12-07T07:59:23;3.80;99.90
55642;DHT22;41509;53.108;6.100;2022-12-07T08:01:50;3.80;99.90
55642;DHT22;41509;53.108;6.100;2022-12-07T08:04:15;3.90;99.90
55642;DHT22;41509;53.108;6.100;2022-12-07T08:06:41;3.90;99.90
55642;DHT22;41509;53.108;6.100;2022-12-07T08:09:08;3.90;99.90
55642;DHT22;41509;53.108;6.100;2022-12-07T08:11:34;3.90;99.90
55642;DHT22;41509;53.108;6.100;2022-12-07T08:14:00;3.90;99.90
55642;DHT22;41509;53.108;6.100;2022-12-07T08:16:25;3.90;99.90
55642;DHT22;41509;53.108;6.100;2022-12-07T08:18:51;3.90;99.90
55642;DHT22;41509;53.108;6.100;2022-12-07T08:21:17;3.90;99.90
55642;DHT22;41509;53.108;6.100;2022-12-07T08:23:42;3.80;99.90
55642;DHT22;41509;53.108;6.100;2022-12-07T08:26:11;3.90;99.90
55642;DHT22;41509;53.108;6.100;2022-12-07T08:28:37;3.80;99.90
55642;DHT22;41509;53.108;6.100;2022-12-07T08:31:12;3.80;99.90
55642;DHT22;41509;53.108;6.100;2022-12-07T08:33:38;3.80;99.90
55642;DHT22;41509;53.108;6.100;2022-12-07T08:36:07;3.80;99.90
55642;DHT22;41509;53.108;6.100;2022-12-07T08:38:37;3.90;99.90
55642;DHT22;41509;53.108;6.100;2022-12-07T08:41:04;3.90;99.90
55642;DHT22;41509;53.108;6.100;2022-12-07T08:43:30;4.00;99.90
55642;DHT22;41509;53.108;6.100;2022-12-07T08:48:31;4.00;99.90
55642;DHT22;41509;53.108;6.100;2022-12-07T08:50:58;4.10;99.90
55642;DHT22;41509;53.108;6.100;2022-12-07T08:53:24;4.10;99.90
55642;DHT22;41509;53.108;6.100;2022-12-07T08:55:50;4.20;99.90
55642;DHT22;41509;53.108;6.100;2022-12-07T08:58:15;4.20;99.90
55642;DHT22;41509;53.108;6.100;2022-12-07T09:00:41;4.20;99.90
55642;DHT22;41509;53.108;6.100;2022-12-07T09:03:07;4.30;99.90
55642;DHT22;41509;53.108;6.100;2022-12-07T09:05:33;4.30;99.90
55642;DHT22;41509;53.108;6.100;2022-12-07T09:08:01;4.20;99.90
55642;DHT22;41509;53.108;6.100;2022-12-07T09:10:28;4.30;99.90
55642;DHT22;41509;53.108;6.100;2022-12-07T09:12:53;4.30;99.90
55642;DHT22;41509;53.108;6.100;2022-12-07T09:15:19;4.30;99.90
55642;DHT22;41509;53.108;6.100;2022-12-07T09:17:45;4.30;99.90
55642;DHT22;41509;53.108;6.100;2022-12-07T09:20:11;4.30;99.90
55642;DHT22;41509;53.108;6.100;2022-12-07T09:22:37;4.30;99.90
55642;DHT22;41509;53.108;6.100;2022-12-07T09:25:04;4.30;99.90
55642;DHT22;41509;53.108;6.100;2022-12-07T09:27:30;4.30;99.90
55642;DHT22;41509;53.108;6.100;2022-12-07T09:29:56;4.30;99.90
55642;DHT22;41509;53.108;6.100;2022-12-07T09:32:21;4.30;99.90
55642;DHT22;41509;53.108;6.100;2022-12-07T09:34:47;4.30;99.90
55642;DHT22;41509;53.108;6.100;2022-12-07T09:37:13;4.30;99.90
55642;DHT22;41509;53.108;6.100;2022-12-07T09:39:39;4.40;99.90
55642;DHT22;41509;53.108;6.100;2022-12-07T09:42:06;4.40;99.90
55642;DHT22;41509;53.108;6.100;2022-12-07T09:44:33;4.50;99.90
55642;DHT22;41509;53.108;6.100;2022-12-07T09:47:00;4.50;99.90
55642;DHT22;41509;53.108;6.100;2022-12-07T09:49:29;4.70;99.90
55642;DHT22;41509;53.108;6.100;2022-12-07T09:54:36;4.90;99.90
55642;DHT22;41509;53.108;6.100;2022-12-07T09:57:03;5.00;99.90
55642;DHT22;41509;53.108;6.100;2022-12-07T09:59:29;5.00;99.90
55642;DHT22;41509;53.108;6.100;2022-12-07T10:01:55;5.10;99.90
55642;DHT22;41509;53.108;6.100;2022-12-07T10:04:23;5.10;99.90
55642;DHT22;41509;53.108;6.100;2022-12-07T10:06:50;5.10;99.90
55642;DHT22;41509;53.108;6.100;2022-12-07T10:09:20;5.10;99.90
55642;DHT22;41509;53.108;6.100;2022-12-07T10:14:29;5.10;99.90
55642;DHT22;41509;53.108;6.100;2022-12-07T10:16:56;5.20;99.90
55642;DHT22;41509;53.108;6.100;2022-12-07T10:24:29;5.30;99.90
55642;DHT22;41509;53.108;6.100;2022-12-07T10:26:55;5.40;99.90
55642;DHT22;41509;53.108;6.100;2022-12-07T10:29:31;5.50;99.90
55642;DHT22;41509;53.108;6.100;2022-12-07T10:32:04;5.50;99.90
55642;DHT22;41509;53.108;6.100;2022-12-07T10:34:35;5.60;99.90
55642;DHT22;41509;53.108;6.100;2022-12-07T10:39:54;5.70;99.90
55642;DHT22;41509;53.108;6.100;2022-12-07T10:50:47;6.10;99.90
55642;DHT22;41509;53.108;6.100;2022-12-07T10:53:33;6.20;99.90
55642;DHT22;41509;53.108;6.100;2022-12-07T11:01:45;6.20;99.90
55642;DHT22;41509;53.108;6.100;2022-12-07T11:13:29;6.00;99.90
55642;DHT22;41509;53.108;6.100;2022-12-07T11:16:03;6.00;99.90
55642;DHT22;41509;53.108;6.100;2022-12-07T11:26:34;5.90;99.90
55642;DHT22;41509;53.108;6.100;2022-12-07T11:29:12;5.90;99.90
55642;DHT22;41509;53.108;6.100;2022-12-07T11:37:02;5.80;99.90
55642;DHT22;41509;53.108;6.100;2022-12-07T11:39:36;5.90;99.90
55642;DHT22;41509;53.108;6.100;2022-12-07T11:42:25;6.00;99.90
55642;DHT22;41509;53.108;6.100;2022-12-07T11:45:47;6.20;99.90
55642;DHT22;41509;53.108;6.100;2022-12-07T11:51:11;6.50;99.90
55642;DHT22;41509;53.108;6.100;2022-12-07T11:53:53;6.50;99.90
55642;DHT22;41509;53.108;6.100;2022-12-07T11:56:21;6.50;99.90
55642;DHT22;41509;53.108;6.100;2022-12-07T12:03:45;6.40;99.90
55642;DHT22;41509;53.108;6.100;2022-12-07T12:06:12;6.10;99.90
55642;DHT22;41509;53.108;6.100;2022-12-07T12:22:38;5.10;99.90
55642;DHT22;41509;53.108;6.100;2022-12-07T12:25:13;5.00;99.90
55642;DHT22;41509;53.108;6.100;2022-12-07T12:27:46;4.90;99.90
55642;DHT22;41509;53.108;6.100;2022-12-07T12:30:37;4.90;99.90
55642;DHT22;41509;53.108;6.100;2022-12-07T12:33:27;4.90;99.90
55642;DHT22;41509;53.108;6.100;2022-12-07T12:36:20;5.00;99.90
55642;DHT22;41509;53.108;6.100;2022-12-07T12:46:53;5.10;99.90
55642;DHT22;41509;53.108;6.100;2022-12-07T12:51:48;5.20;99.90
55642;DHT22;41509;53.108;6.100;2022-12-07T12:55:17;5.30;99.90
55642;DHT22;41509;53.108;6.100;2022-12-07T12:57:31;5.30;99.90
55642;DHT22;41509;53.108;6.100;2022-12-07T12:59:57;5.40;99.90
55642;DHT22;41509;53.108;6.100;2022-12-07T13:02:36;5.30;99.90
55642;DHT22;41509;53.108;6.100;2022-12-07T13:13:00;5.30;99.90
55642;DHT22;41509;53.108;6.100;2022-12-07T13:15:40;5.30;99.90
55642;DHT22;41509;53.108;6.100;2022-12-07T13:26:18;5.30;99.90
55642;DHT22;41509;53.108;6.100;2022-12-07T13:31:37;5.30;99.90
55642;DHT22;41509;53.108;6.100;2022-12-07T13:36:51;5.30;99.90
55642;DHT22;41509;53.108;6.100;2022-12-07T13:39:22;5.40;99.90
55642;DHT22;41509;53.108;6.100;2022-12-07T13:41:53;5.30;99.90
55642;DHT22;41509;53.108;6.100;2022-12-07T13:44:19;5.30;99.90
55642;DHT22;41509;53.108;6.100;2022-12-07T13:49:19;5.30;99.90
55642;DHT22;41509;53.108;6.100;2022-12-07T13:51:46;5.40;99.90
55642;DHT22;41509;53.108;6.100;2022-12-07T13:54:13;5.30;99.90
55642;DHT22;41509;53.108;6.100;2022-12-07T13:56:39;5.30;99.90
55642;DHT22;41509;53.108;6.100;2022-12-07T13:59:14;5.30;99.90
55642;DHT22;41509;53.108;6.100;2022-12-07T14:01:41;5.20;99.90
55642;DHT22;41509;53.108;6.100;2022-12-07T14:04:31;5.20;99.90
55642;DHT22;41509;53.108;6.100;2022-12-07T14:06:57;5.20;99.90
55642;DHT22;41509;53.108;6.100;2022-12-07T14:09:25;5.10;99.90
55642;DHT22;41509;53.108;6.100;2022-12-07T14:11:53;5.10;99.90
55642;DHT22;41509;53.108;6.100;2022-12-07T14:14:25;5.00;99.90
55642;DHT22;41509;53.108;6.100;2022-12-07T14:19:50;5.10;99.90
55642;DHT22;41509;53.108;6.100;2022-12-07T14:22:28;5.00;99.90
55642;DHT22;41509;53.108;6.100;2022-12-07T14:27:38;4.90;99.90
55642;DHT22;41509;53.108;6.100;2022-12-07T14:30:05;4.90;99.90
55642;DHT22;41509;53.108;6.100;2022-12-07T14:32:31;4.90;99.90
55642;DHT22;41509;53.108;6.100;2022-12-07T14:35:11;4.80;99.90
55642;DHT22;41509;53.108;6.100;2022-12-07T14:37:38;4.80;99.90
55642;DHT22;41509;53.108;6.100;2022-12-07T14:40:05;4.80;99.90
55642;DHT22;41509;53.108;6.100;2022-12-07T14:42:33;4.80;99.90
55642;DHT22;41509;53.108;6.100;2022-12-07T14:45:00;4.80;99.90
55642;DHT22;41509;53.108;6.100;2022-12-07T14:47:26;4.80;99.90
55642;DHT22;41509;53.108;6.100;2022-12-07T14:49:52;4.80;99.90
55642;DHT22;41509;53.108;6.100;2022-12-07T14:52:22;4.70;99.90
55642;DHT22;41509;53.108;6.100;2022-12-07T14:54:48;4.70;99.90
55642;DHT22;41509;53.108;6.100;2022-12-07T14:57:14;4.70;99.90
55642;DHT22;41509;53.108;6.100;2022-12-07T14:59:39;4.70;99.90
55642;DHT22;41509;53.108;6.100;2022-12-07T15:02:06;4.70;99.90
55642;DHT22;41509;53.108;6.100;2022-12-07T15:04:31;4.60;99.90
55642;DHT22;41509;53.108;6.100;2022-12-07T15:07:02;4.60;99.90
55642;DHT22;41509;53.108;6.100;2022-12-07T15:09:28;4.60;99.90
55642;DHT22;41509;53.108;6.100;2022-12-07T15:11:54;4.60;99.90
55642;DHT22;41509;53.108;6.100;2022-12-07T15:14:20;4.60;99.90
55642;DHT22;41509;53.108;6.100;2022-12-07T15:16:45;4.60;99.90
55642;DHT22;41509;53.108;6.100;2022-12-07T15:19:23;4.60;99.90
55642;DHT22;41509;53.108;6.100;2022-12-07T15:21:51;4.60;99.90
55642;DHT22;41509;53.108;6.100;2022-12-07T15:24:17;4.60;99.90
55642;DHT22;41509;53.108;6.100;2022-12-07T15:26:43;4.60;99.90
55642;DHT22;41509;53.108;6.100;2022-12-07T15:29:09;4.60;99.90
55642;DHT22;41509;53.108;6.100;2022-12-07T15:31:35;4.60;99.90
55642;DHT22;41509;53.108;6.100;2022-12-07T15:34:01;4.50;99.90
55642;DHT22;41509;53.108;6.100;2022-12-07T15:36:29;4.60;99.90
55642;DHT22;41509;53.108;6.100;2022-12-07T15:38:55;4.60;99.90
55642;DHT22;41509;53.108;6.100;2022-12-07T15:41:21;4.50;99.90
55642;DHT22;41509;53.108;6.100;2022-12-07T15:43:47;4.50;99.90
55642;DHT22;41509;53.108;6.100;2022-12-07T15:46:39;4.40;99.90
55642;DHT22;41509;53.108;6.100;2022-12-07T15:49:14;4.40;99.90
55642;DHT22;41509;53.108;6.100;2022-12-07T15:51:41;4.40;99.90
55642;DHT22;41509;53.108;6.100;2022-12-07T15:54:21;4.30;99.90
55642;DHT22;41509;53.108;6.100;2022-12-07T15:56:48;4.30;99.90
55642;DHT22;41509;53.108;6.100;2022-12-07T15:59:14;4.30;99.90
55642;DHT22;41509;53.108;6.100;2022-12-07T16:01:40;4.30;99.90
55642;DHT22;41509;53.108;6.100;2022-12-07T16:04:06;4.20;99.90
55642;DHT22;41509;53.108;6.100;2022-12-07T16:06:31;4.20;99.90
55642;DHT22;41509;53.108;6.100;2022-12-07T16:08:57;4.20;99.90
55642;DHT22;41509;53.108;6.100;2022-12-07T16:11:23;4.20;99.90
55642;DHT22;41509;53.108;6.100;2022-12-07T16:13:49;4.10;99.90
55642;DHT22;41509;53.108;6.100;2022-12-07T16:16:17;4.10;99.90
55642;DHT22;41509;53.108;6.100;2022-12-07T16:18:44;4.10;99.90
55642;DHT22;41509;53.108;6.100;2022-12-07T16:21:10;4.10;99.90
55642;DHT22;41509;53.108;6.100;2022-12-07T16:23:36;4.00;99.90
55642;DHT22;41509;53.108;6.100;2022-12-07T16:26:13;4.00;99.90
55642;DHT22;41509;53.108;6.100;2022-12-07T16:28:39;4.00;99.90
55642;DHT22;41509;53.108;6.100;2022-12-07T16:31:11;3.90;99.90
55642;DHT22;41509;53.108;6.100;2022-12-07T16:33:38;3.90;99.90
55642;DHT22;41509;53.108;6.100;2022-12-07T16:36:05;3.90;99.90
55642;DHT22;41509;53.108;6.100;2022-12-07T16:38:32;3.90;99.90
55642;DHT22;41509;53.108;6.100;2022-12-07T16:40:57;3.90;99.90
55642;DHT22;41509;53.108;6.100;2022-12-07T16:43:23;3.90;99.90
55642;DHT22;41509;53.108;6.100;2022-12-07T16:45:49;3.90;99.90
55642;DHT22;41509;53.108;6.100;2022-12-07T16:48:15;3.90;99.90
55642;DHT22;41509;53.108;6.100;2022-12-07T16:50:42;3.90;99.90
55642;DHT22;41509;53.108;6.100;2022-12-07T16:53:11;3.90;99.90
55642;DHT22;41509;53.108;6.100;2022-12-07T16:55:38;4.00;99.90
55642;DHT22;41509;53.108;6.100;2022-12-07T16:58:04;4.00;99.90
55642;DHT22;41509;53.108;6.100;2022-12-07T17:00:30;4.00;99.90
55642;DHT22;41509;53.108;6.100;2022-12-07T17:02:59;4.00;99.90
55642;DHT22;41509;53.108;6.100;2022-12-07T17:05:25;4.00;99.90
55642;DHT22;41509;53.108;6.100;2022-12-07T17:07:52;4.00;99.90
55642;DHT22;41509;53.108;6.100;2022-12-07T17:10:18;4.00;99.90
55642;DHT22;41509;53.108;6.100;2022-12-07T17:12:43;4.00;99.90
55642;DHT22;41509;53.108;6.100;2022-12-07T17:15:09;3.90;99.90
55642;DHT22;41509;53.108;6.100;2022-12-07T17:17:52;3.90;99.90
55642;DHT22;41509;53.108;6.100;2022-12-07T17:20:18;3.90;99.90
55642;DHT22;41509;53.108;6.100;2022-12-07T17:22:47;3.90;99.90
55642;DHT22;41509;53.108;6.100;2022-12-07T17:25:13;3.90;99.90
55642;DHT22;41509;53.108;6.100;2022-12-07T17:27:39;3.90;99.90
55642;DHT22;41509;53.108;6.100;2022-12-07T17:30:08;3.90;99.90
55642;DHT22;41509;53.108;6.100;2022-12-07T17:32:34;3.90;99.90
55642;DHT22;41509;53.108;6.100;2022-12-07T17:35:00;3.90;99.90
55642;DHT22;41509;53.108;6.100;2022-12-07T17:37:26;3.90;99.90
55642;DHT22;41509;53.108;6.100;2022-12-07T17:39:52;3.90;99.90
55642;DHT22;41509;53.108;6.100;2022-12-07T17:42:19;3.90;99.90
55642;DHT22;41509;53.108;6.100;2022-12-07T17:45:08;3.90;99.90
55642;DHT22;41509;53.108;6.100;2022-12-07T17:47:36;3.90;99.90
55642;DHT22;41509;53.108;6.100;2022-12-07T17:50:03;3.80;99.90
55642;DHT22;41509;53.108;6.100;2022-12-07T17:52:28;3.90;99.90
55642;DHT22;41509;53.108;6.100;2022-12-07T17:55:13;3.80;99.90
55642;DHT22;41509;53.108;6.100;2022-12-07T17:57:38;3.80;99.90
55642;DHT22;41509;53.108;6.100;2022-12-07T18:00:05;3.80;99.90
55642;DHT22;41509;53.108;6.100;2022-12-07T18:02:31;3.70;99.90
55642;DHT22;41509;53.108;6.100;2022-12-07T18:04:57;3.70;99.90
55642;DHT22;41509;53.108;6.100;2022-12-07T18:07:22;3.70;99.90
55642;DHT22;41509;53.108;6.100;2022-12-07T18:09:48;3.70;99.90
55642;DHT22;41509;53.108;6.100;2022-12-07T18:12:17;3.60;99.90
55642;DHT22;41509;53.108;6.100;2022-12-07T18:14:42;3.60;99.90
55642;DHT22;41509;53.108;6.100;2022-12-07T18:17:08;3.60;99.90
55642;DHT22;41509;53.108;6.100;2022-12-07T18:19:34;3.60;99.90